Terminal Aerodrome Forecast
Issued by NWS Grand Forks, ND

Home | Current Version | Previous Version | Text Only | Print | Product List | Glossary Off
Versions: 1 2 3 4 5 6 7 8 9 10 11 12 13 14 15 16 17 18 19

000
FTUS43 KFGF 171300 AAB
TAFGFK
TAF AMD
KGFK 171340Z 1714/1812 31005KT P6SM SCT250
     FM171500 01010KT P6SM SCT015
      TEMPO 1716/1718 BKN012
     FM172100 05008KT P6SM SCT250=

USA.gov is the U.S. government's official web portal to all federal, state and local government web resources and services.